sensor_id;sensor_type;location;lat;lon;timestamp;P1;durP1;ratioP1;P2;durP2;ratioP2
69161;SDS011;56269;51.738;21.652;2024-03-22T00:02:05;13.63;;;5.13;;
69161;SDS011;56269;51.738;21.652;2024-03-22T00:04:31;14.30;;;5.40;;
69161;SDS011;56269;51.738;21.652;2024-03-22T00:06:58;13.65;;;5.03;;
69161;SDS011;56269;51.738;21.652;2024-03-22T00:09:26;12.90;;;4.88;;
69161;SDS011;56269;51.738;21.652;2024-03-22T00:11:53;11.00;;;4.60;;
69161;SDS011;56269;51.738;21.652;2024-03-22T00:14:19;10.87;;;4.50;;
69161;SDS011;56269;51.738;21.652;2024-03-22T00:16:45;13.02;;;5.00;;
69161;SDS011;56269;51.738;21.652;2024-03-22T00:19:12;13.13;;;5.28;;
69161;SDS011;56269;51.738;21.652;2024-03-22T00:21:38;11.02;;;4.90;;
69161;SDS011;56269;51.738;21.652;2024-03-22T00:24:04;14.05;;;5.28;;
69161;SDS011;56269;51.738;21.652;2024-03-22T00:26:31;12.03;;;5.10;;
69161;SDS011;56269;51.738;21.652;2024-03-22T00:28:57;14.20;;;5.43;;
69161;SDS011;56269;51.738;21.652;2024-03-22T00:31:24;14.05;;;5.10;;
69161;SDS011;56269;51.738;21.652;2024-03-22T00:33:50;14.55;;;4.78;;
69161;SDS011;56269;51.738;21.652;2024-03-22T00:36:17;14.48;;;5.70;;
69161;SDS011;56269;51.738;21.652;2024-03-22T00:38:44;11.37;;;4.57;;
69161;SDS011;56269;51.738;21.652;2024-03-22T00:41:10;17.67;;;6.40;;
69161;SDS011;56269;51.738;21.652;2024-03-22T00:43:36;14.68;;;5.13;;
69161;SDS011;56269;51.738;21.652;2024-03-22T00:46:03;14.15;;;4.78;;
69161;SDS011;56269;51.738;21.652;2024-03-22T00:48:29;13.30;;;5.70;;
69161;SDS011;56269;51.738;21.652;2024-03-22T00:50:55;17.00;;;6.50;;
69161;SDS011;56269;51.738;21.652;2024-03-22T00:53:21;19.50;;;5.65;;
69161;SDS011;56269;51.738;21.652;2024-03-22T00:55:48;17.83;;;6.72;;
69161;SDS011;56269;51.738;21.652;2024-03-22T00:58:19;15.88;;;5.65;;
69161;SDS011;56269;51.738;21.652;2024-03-22T01:00:46;14.57;;;5.78;;
69161;SDS011;56269;51.738;21.652;2024-03-22T01:03:12;14.57;;;5.83;;
69161;SDS011;56269;51.738;21.652;2024-03-22T01:05:39;12.77;;;5.55;;
69161;SDS011;56269;51.738;21.652;2024-03-22T01:08:05;20.60;;;5.78;;
69161;SDS011;56269;51.738;21.652;2024-03-22T01:10:33;15.57;;;6.32;;
69161;SDS011;56269;51.738;21.652;2024-03-22T01:13:00;15.02;;;6.07;;
69161;SDS011;56269;51.738;21.652;2024-03-22T01:15:26;19.73;;;5.33;;
69161;SDS011;56269;51.738;21.652;2024-03-22T01:17:53;13.02;;;5.32;;
69161;SDS011;56269;51.738;21.652;2024-03-22T01:20:19;17.80;;;6.53;;
69161;SDS011;56269;51.738;21.652;2024-03-22T01:22:45;14.45;;;6.15;;
69161;SDS011;56269;51.738;21.652;2024-03-22T01:25:12;17.50;;;6.68;;
69161;SDS011;56269;51.738;21.652;2024-03-22T01:27:38;17.33;;;7.00;;
69161;SDS011;56269;51.738;21.652;2024-03-22T01:30:04;15.60;;;7.18;;
69161;SDS011;56269;51.738;21.652;2024-03-22T01:32:31;15.90;;;6.68;;
69161;SDS011;56269;51.738;21.652;2024-03-22T01:34:57;14.18;;;5.95;;
69161;SDS011;56269;51.738;21.652;2024-03-22T01:37:23;14.68;;;6.10;;
69161;SDS011;56269;51.738;21.652;2024-03-22T01:39:50;15.03;;;5.83;;
69161;SDS011;56269;51.738;21.652;2024-03-22T01:42:16;20.65;;;6.85;;
69161;SDS011;56269;51.738;21.652;2024-03-22T01:44:42;15.55;;;6.78;;
69161;SDS011;56269;51.738;21.652;2024-03-22T01:47:09;20.98;;;7.97;;
69161;SDS011;56269;51.738;21.652;2024-03-22T01:49:35;18.38;;;7.35;;
69161;SDS011;56269;51.738;21.652;2024-03-22T01:52:01;18.63;;;7.00;;
69161;SDS011;56269;51.738;21.652;2024-03-22T01:54:29;17.45;;;6.70;;
69161;SDS011;56269;51.738;21.652;2024-03-22T01:56:56;19.30;;;6.60;;
69161;SDS011;56269;51.738;21.652;2024-03-22T01:59:22;17.08;;;6.22;;
69161;SDS011;56269;51.738;21.652;2024-03-22T02:01:49;19.55;;;7.57;;
69161;SDS011;56269;51.738;21.652;2024-03-22T02:04:15;15.90;;;6.87;;
69161;SDS011;56269;51.738;21.652;2024-03-22T02:06:41;20.52;;;6.75;;
69161;SDS011;56269;51.738;21.652;2024-03-22T02:09:08;16.70;;;6.22;;
69161;SDS011;56269;51.738;21.652;2024-03-22T02:11:35;17.05;;;7.28;;
69161;SDS011;56269;51.738;21.652;2024-03-22T02:14:05;16.17;;;6.40;;
69161;SDS011;56269;51.738;21.652;2024-03-22T02:16:31;15.87;;;6.13;;
69161;SDS011;56269;51.738;21.652;2024-03-22T02:18:58;15.13;;;6.75;;
69161;SDS011;56269;51.738;21.652;2024-03-22T02:21:25;17.88;;;7.55;;
69161;SDS011;56269;51.738;21.652;2024-03-22T02:23:51;18.40;;;7.15;;
69161;SDS011;56269;51.738;21.652;2024-03-22T02:26:17;14.93;;;6.32;;
69161;SDS011;56269;51.738;21.652;2024-03-22T02:28:43;15.13;;;6.10;;
69161;SDS011;56269;51.738;21.652;2024-03-22T02:31:09;15.63;;;6.90;;
69161;SDS011;56269;51.738;21.652;2024-03-22T02:33:36;20.80;;;7.70;;
69161;SDS011;56269;51.738;21.652;2024-03-22T02:36:02;16.83;;;6.82;;
69161;SDS011;56269;51.738;21.652;2024-03-22T02:38:28;15.07;;;7.22;;
69161;SDS011;56269;51.738;21.652;2024-03-22T02:40:57;17.63;;;6.93;;
69161;SDS011;56269;51.738;21.652;2024-03-22T02:43:24;21.20;;;7.47;;
69161;SDS011;56269;51.738;21.652;2024-03-22T02:45:50;18.13;;;6.85;;
69161;SDS011;56269;51.738;21.652;2024-03-22T02:48:17;17.65;;;6.90;;
69161;SDS011;56269;51.738;21.652;2024-03-22T02:50:43;19.48;;;7.88;;
69161;SDS011;56269;51.738;21.652;2024-03-22T02:53:09;18.33;;;7.97;;
69161;SDS011;56269;51.738;21.652;2024-03-22T02:55:36;20.15;;;7.57;;
69161;SDS011;56269;51.738;21.652;2024-03-22T02:58:04;19.55;;;8.48;;
69161;SDS011;56269;51.738;21.652;2024-03-22T03:00:35;16.75;;;8.15;;
69161;SDS011;56269;51.738;21.652;2024-03-22T03:03:05;21.50;;;7.80;;
69161;SDS011;56269;51.738;21.652;2024-03-22T03:05:32;21.30;;;8.10;;
69161;SDS011;56269;51.738;21.652;2024-03-22T03:07:59;20.20;;;7.82;;
69161;SDS011;56269;51.738;21.652;2024-03-22T03:10:25;20.63;;;8.20;;
69161;SDS011;56269;51.738;21.652;2024-03-22T03:12:54;22.73;;;8.82;;
69161;SDS011;56269;51.738;21.652;2024-03-22T03:15:20;20.50;;;8.95;;
69161;SDS011;56269;51.738;21.652;2024-03-22T03:17:47;20.57;;;8.70;;
69161;SDS011;56269;51.738;21.652;2024-03-22T03:20:13;24.70;;;9.32;;
69161;SDS011;56269;51.738;21.652;2024-03-22T03:22:39;21.83;;;9.13;;
69161;SDS011;56269;51.738;21.652;2024-03-22T03:25:06;21.45;;;8.82;;
69161;SDS011;56269;51.738;21.652;2024-03-22T03:27:33;21.80;;;9.43;;
69161;SDS011;56269;51.738;21.652;2024-03-22T03:29:59;21.27;;;9.00;;
69161;SDS011;56269;51.738;21.652;2024-03-22T03:32:26;21.30;;;8.43;;
69161;SDS011;56269;51.738;21.652;2024-03-22T03:34:53;19.83;;;8.73;;
69161;SDS011;56269;51.738;21.652;2024-03-22T03:37:19;24.52;;;9.68;;
69161;SDS011;56269;51.738;21.652;2024-03-22T03:39:46;23.67;;;9.35;;
69161;SDS011;56269;51.738;21.652;2024-03-22T03:42:12;22.23;;;8.93;;
69161;SDS011;56269;51.738;21.652;2024-03-22T03:44:38;26.33;;;9.38;;
69161;SDS011;56269;51.738;21.652;2024-03-22T03:47:04;27.40;;;9.30;;
69161;SDS011;56269;51.738;21.652;2024-03-22T03:49:33;25.30;;;10.07;;
69161;SDS011;56269;51.738;21.652;2024-03-22T03:52:00;23.23;;;9.47;;
69161;SDS011;56269;51.738;21.652;2024-03-22T03:54:26;22.75;;;8.35;;
69161;SDS011;56269;51.738;21.652;2024-03-22T03:56:52;20.40;;;8.82;;
69161;SDS011;56269;51.738;21.652;2024-03-22T03:59:18;21.10;;;9.07;;
69161;SDS011;56269;51.738;21.652;2024-03-22T04:01:45;22.52;;;9.93;;
69161;SDS011;56269;51.738;21.652;2024-03-22T04:04:11;23.97;;;9.80;;
69161;SDS011;56269;51.738;21.652;2024-03-22T04:06:37;26.38;;;9.43;;
69161;SDS011;56269;51.738;21.652;2024-03-22T04:09:03;24.33;;;10.20;;
69161;SDS011;56269;51.738;21.652;2024-03-22T04:11:31;24.25;;;9.30;;
69161;SDS011;56269;51.738;21.652;2024-03-22T04:13:57;22.88;;;9.32;;
69161;SDS011;56269;51.738;21.652;2024-03-22T04:16:23;23.37;;;9.40;;
69161;SDS011;56269;51.738;21.652;2024-03-22T04:18:49;24.00;;;9.82;;
69161;SDS011;56269;51.738;21.652;2024-03-22T04:21:17;24.98;;;9.65;;
69161;SDS011;56269;51.738;21.652;2024-03-22T04:23:43;23.65;;;9.55;;
69161;SDS011;56269;51.738;21.652;2024-03-22T04:26:10;21.30;;;9.70;;
69161;SDS011;56269;51.738;21.652;2024-03-22T04:28:36;23.53;;;9.00;;
69161;SDS011;56269;51.738;21.652;2024-03-22T04:31:03;27.08;;;10.52;;
69161;SDS011;56269;51.738;21.652;2024-03-22T04:33:30;26.00;;;9.68;;
69161;SDS011;56269;51.738;21.652;2024-03-22T04:35:58;29.30;;;11.25;;
69161;SDS011;56269;51.738;21.652;2024-03-22T04:38:26;27.85;;;11.10;;
69161;SDS011;56269;51.738;21.652;2024-03-22T04:40:53;33.93;;;12.03;;
69161;SDS011;56269;51.738;21.652;2024-03-22T04:43:21;30.77;;;12.77;;
69161;SDS011;56269;51.738;21.652;2024-03-22T04:45:47;32.35;;;12.80;;
69161;SDS011;56269;51.738;21.652;2024-03-22T04:48:19;32.47;;;13.73;;
69161;SDS011;56269;51.738;21.652;2024-03-22T04:50:49;31.60;;;12.13;;
69161;SDS011;56269;51.738;21.652;2024-03-22T04:53:16;29.60;;;12.33;;
69161;SDS011;56269;51.738;21.652;2024-03-22T04:55:43;29.50;;;11.57;;
69161;SDS011;56269;51.738;21.652;2024-03-22T04:58:20;30.45;;;11.45;;
69161;SDS011;56269;51.738;21.652;2024-03-22T05:00:48;30.83;;;11.80;;
69161;SDS011;56269;51.738;21.652;2024-03-22T05:03:15;32.55;;;13.23;;
69161;SDS011;56269;51.738;21.652;2024-03-22T05:05:42;29.10;;;11.03;;
69161;SDS011;56269;51.738;21.652;2024-03-22T05:08:08;24.60;;;11.23;;
69161;SDS011;56269;51.738;21.652;2024-03-22T05:10:35;26.08;;;10.70;;
69161;SDS011;56269;51.738;21.652;2024-03-22T05:13:01;27.92;;;11.55;;
69161;SDS011;56269;51.738;21.652;2024-03-22T05:15:28;26.60;;;10.27;;
69161;SDS011;56269;51.738;21.652;2024-03-22T05:17:56;25.37;;;10.43;;
69161;SDS011;56269;51.738;21.652;2024-03-22T05:20:24;27.23;;;10.45;;
69161;SDS011;56269;51.738;21.652;2024-03-22T05:22:50;24.27;;;10.40;;
69161;SDS011;56269;51.738;21.652;2024-03-22T05:25:16;27.23;;;11.20;;
69161;SDS011;56269;51.738;21.652;2024-03-22T05:27:43;29.33;;;12.05;;
69161;SDS011;56269;51.738;21.652;2024-03-22T05:30:10;37.10;;;12.87;;
69161;SDS011;56269;51.738;21.652;2024-03-22T05:32:37;32.30;;;11.65;;
69161;SDS011;56269;51.738;21.652;2024-03-22T05:35:04;30.45;;;10.95;;
69161;SDS011;56269;51.738;21.652;2024-03-22T05:37:30;26.45;;;11.35;;
69161;SDS011;56269;51.738;21.652;2024-03-22T05:39:57;23.45;;;10.05;;
69161;SDS011;56269;51.738;21.652;2024-03-22T05:42:24;27.30;;;10.77;;
69161;SDS011;56269;51.738;21.652;2024-03-22T05:44:50;30.08;;;12.50;;
69161;SDS011;56269;51.738;21.652;2024-03-22T05:47:18;30.30;;;11.88;;
69161;SDS011;56269;51.738;21.652;2024-03-22T05:49:45;30.17;;;11.95;;
69161;SDS011;56269;51.738;21.652;2024-03-22T05:52:11;30.13;;;12.82;;
69161;SDS011;56269;51.738;21.652;2024-03-22T05:54:38;31.03;;;11.70;;
69161;SDS011;56269;51.738;21.652;2024-03-22T05:57:04;31.88;;;12.07;;
69161;SDS011;56269;51.738;21.652;2024-03-22T05:59:33;28.27;;;11.25;;
69161;SDS011;56269;51.738;21.652;2024-03-22T06:01:59;30.83;;;12.43;;
69161;SDS011;56269;51.738;21.652;2024-03-22T06:04:27;34.47;;;12.13;;
69161;SDS011;56269;51.738;21.652;2024-03-22T06:06:53;25.97;;;10.80;;
69161;SDS011;56269;51.738;21.652;2024-03-22T06:09:19;28.92;;;10.55;;
69161;SDS011;56269;51.738;21.652;2024-03-22T06:12:05;21.05;;;8.45;;
69161;SDS011;56269;51.738;21.652;2024-03-22T06:14:33;25.73;;;10.75;;
69161;SDS011;56269;51.738;21.652;2024-03-22T06:16:59;26.98;;;9.93;;
69161;SDS011;56269;51.738;21.652;2024-03-22T06:19:25;31.30;;;10.40;;
69161;SDS011;56269;51.738;21.652;2024-03-22T06:21:51;25.67;;;10.73;;
69161;SDS011;56269;51.738;21.652;2024-03-22T06:24:18;21.52;;;9.10;;
69161;SDS011;56269;51.738;21.652;2024-03-22T06:26:44;25.67;;;10.00;;
69161;SDS011;56269;51.738;21.652;2024-03-22T06:29:10;18.40;;;8.85;;
69161;SDS011;56269;51.738;21.652;2024-03-22T06:31:36;19.97;;;9.10;;
69161;SDS011;56269;51.738;21.652;2024-03-22T06:34:03;24.27;;;9.85;;
69161;SDS011;56269;51.738;21.652;2024-03-22T06:36:29;23.58;;;9.00;;
69161;SDS011;56269;51.738;21.652;2024-03-22T06:38:58;27.50;;;8.30;;
69161;SDS011;56269;51.738;21.652;2024-03-22T06:41:30;21.60;;;9.20;;
69161;SDS011;56269;51.738;21.652;2024-03-22T06:43:56;20.20;;;8.10;;
69161;SDS011;56269;51.738;21.652;2024-03-22T06:46:22;19.60;;;8.05;;
69161;SDS011;56269;51.738;21.652;2024-03-22T06:48:48;21.77;;;8.73;;
69161;SDS011;56269;51.738;21.652;2024-03-22T06:51:14;21.70;;;9.93;;
69161;SDS011;56269;51.738;21.652;2024-03-22T06:53:41;21.08;;;8.95;;
69161;SDS011;56269;51.738;21.652;2024-03-22T06:56:07;15.73;;;7.97;;
69161;SDS011;56269;51.738;21.652;2024-03-22T06:58:40;24.40;;;9.50;;
69161;SDS011;56269;51.738;21.652;2024-03-22T07:01:06;22.63;;;7.95;;
69161;SDS011;56269;51.738;21.652;2024-03-22T07:03:32;21.98;;;9.00;;
69161;SDS011;56269;51.738;21.652;2024-03-22T07:05:59;24.77;;;9.77;;
69161;SDS011;56269;51.738;21.652;2024-03-22T07:08:26;21.70;;;9.30;;
69161;SDS011;56269;51.738;21.652;2024-03-22T07:10:53;20.38;;;9.20;;
69161;SDS011;56269;51.738;21.652;2024-03-22T07:13:20;16.67;;;7.75;;
69161;SDS011;56269;51.738;21.652;2024-03-22T07:15:46;24.73;;;10.02;;
69161;SDS011;56269;51.738;21.652;2024-03-22T07:18:13;17.88;;;8.18;;
69161;SDS011;56269;51.738;21.652;2024-03-22T07:20:40;22.90;;;9.07;;
69161;SDS011;56269;51.738;21.652;2024-03-22T07:23:07;28.17;;;9.85;;
69161;SDS011;56269;51.738;21.652;2024-03-22T07:25:33;23.92;;;9.98;;
69161;SDS011;56269;51.738;21.652;2024-03-22T07:28:00;22.55;;;9.73;;
69161;SDS011;56269;51.738;21.652;2024-03-22T07:30:26;27.48;;;9.95;;
69161;SDS011;56269;51.738;21.652;2024-03-22T07:32:52;22.87;;;9.67;;
69161;SDS011;56269;51.738;21.652;2024-03-22T07:35:19;22.58;;;9.25;;
69161;SDS011;56269;51.738;21.652;2024-03-22T07:37:45;25.33;;;10.07;;
69161;SDS011;56269;51.738;21.652;2024-03-22T07:40:11;20.55;;;9.00;;
69161;SDS011;56269;51.738;21.652;2024-03-22T07:42:38;27.10;;;9.73;;
69161;SDS011;56269;51.738;21.652;2024-03-22T07:45:04;24.47;;;10.43;;
69161;SDS011;56269;51.738;21.652;2024-03-22T07:47:30;28.27;;;10.57;;
69161;SDS011;56269;51.738;21.652;2024-03-22T07:49:57;24.35;;;9.98;;
69161;SDS011;56269;51.738;21.652;2024-03-22T07:52:23;27.75;;;10.38;;
69161;SDS011;56269;51.738;21.652;2024-03-22T07:54:50;23.65;;;10.13;;
69161;SDS011;56269;51.738;21.652;2024-03-22T07:57:16;24.97;;;9.23;;
69161;SDS011;56269;51.738;21.652;2024-03-22T07:59:42;22.20;;;9.30;;
69161;SDS011;56269;51.738;21.652;2024-03-22T08:02:09;22.38;;;9.13;;
69161;SDS011;56269;51.738;21.652;2024-03-22T08:04:36;24.38;;;10.43;;
69161;SDS011;56269;51.738;21.652;2024-03-22T08:07:02;25.67;;;10.18;;
69161;SDS011;56269;51.738;21.652;2024-03-22T08:09:28;22.17;;;8.97;;
69161;SDS011;56269;51.738;21.652;2024-03-22T08:11:55;21.73;;;8.63;;
69161;SDS011;56269;51.738;21.652;2024-03-22T08:14:21;22.30;;;8.95;;
69161;SDS011;56269;51.738;21.652;2024-03-22T08:16:47;26.08;;;9.60;;
69161;SDS011;56269;51.738;21.652;2024-03-22T08:19:13;25.13;;;9.45;;
69161;SDS011;56269;51.738;21.652;2024-03-22T08:21:40;21.67;;;8.57;;
69161;SDS011;56269;51.738;21.652;2024-03-22T08:24:06;23.83;;;9.07;;
69161;SDS011;56269;51.738;21.652;2024-03-22T08:26:32;20.77;;;7.30;;
69161;SDS011;56269;51.738;21.652;2024-03-22T08:28:59;17.27;;;6.63;;
69161;SDS011;56269;51.738;21.652;2024-03-22T08:31:25;22.02;;;9.05;;
69161;SDS011;56269;51.738;21.652;2024-03-22T08:33:54;21.93;;;8.63;;
69161;SDS011;56269;51.738;21.652;2024-03-22T08:36:22;21.38;;;9.25;;
69161;SDS011;56269;51.738;21.652;2024-03-22T08:38:49;21.90;;;8.90;;
69161;SDS011;56269;51.738;21.652;2024-03-22T08:41:15;23.15;;;9.18;;
69161;SDS011;56269;51.738;21.652;2024-03-22T08:43:41;24.55;;;9.10;;
69161;SDS011;56269;51.738;21.652;2024-03-22T08:46:07;22.93;;;9.17;;
69161;SDS011;56269;51.738;21.652;2024-03-22T08:48:34;24.35;;;8.90;;
69161;SDS011;56269;51.738;21.652;2024-03-22T08:51:00;22.25;;;9.20;;
69161;SDS011;56269;51.738;21.652;2024-03-22T08:53:26;23.45;;;9.35;;
69161;SDS011;56269;51.738;21.652;2024-03-22T08:55:52;25.07;;;9.73;;
69161;SDS011;56269;51.738;21.652;2024-03-22T08:58:18;22.20;;;8.55;;
69161;SDS011;56269;51.738;21.652;2024-03-22T09:00:44;20.98;;;8.50;;
69161;SDS011;56269;51.738;21.652;2024-03-22T09:03:11;18.70;;;7.53;;
69161;SDS011;56269;51.738;21.652;2024-03-22T09:05:37;19.03;;;7.73;;
69161;SDS011;56269;51.738;21.652;2024-03-22T09:08:04;18.83;;;7.90;;
69161;SDS011;56269;51.738;21.652;2024-03-22T09:10:30;15.15;;;6.18;;
69161;SDS011;56269;51.738;21.652;2024-03-22T09:12:56;20.20;;;8.10;;
69161;SDS011;56269;51.738;21.652;2024-03-22T09:15:22;15.80;;;6.70;;
69161;SDS011;56269;51.738;21.652;2024-03-22T09:17:51;18.20;;;7.83;;
69161;SDS011;56269;51.738;21.652;2024-03-22T09:20:18;20.35;;;6.72;;
69161;SDS011;56269;51.738;21.652;2024-03-22T09:22:44;18.17;;;7.88;;
69161;SDS011;56269;51.738;21.652;2024-03-22T09:25:10;13.23;;;5.65;;
69161;SDS011;56269;51.738;21.652;2024-03-22T09:27:37;11.55;;;5.22;;
69161;SDS011;56269;51.738;21.652;2024-03-22T09:30:03;13.87;;;5.47;;
69161;SDS011;56269;51.738;21.652;2024-03-22T09:32:30;15.00;;;6.15;;
69161;SDS011;56269;51.738;21.652;2024-03-22T09:34:57;12.88;;;6.00;;
69161;SDS011;56269;51.738;21.652;2024-03-22T09:37:23;15.52;;;6.00;;
69161;SDS011;56269;51.738;21.652;2024-03-22T09:39:49;15.73;;;6.80;;
69161;SDS011;56269;51.738;21.652;2024-03-22T09:42:16;16.35;;;6.85;;
69161;SDS011;56269;51.738;21.652;2024-03-22T09:44:48;12.32;;;5.45;;
69161;SDS011;56269;51.738;21.652;2024-03-22T09:47:16;14.32;;;6.05;;
69161;SDS011;56269;51.738;21.652;2024-03-22T09:49:43;16.05;;;4.15;;
69161;SDS011;56269;51.738;21.652;2024-03-22T09:52:12;9.30;;;4.00;;
69161;SDS011;56269;51.738;21.652;2024-03-22T09:54:48;14.65;;;5.53;;
69161;SDS011;56269;51.738;21.652;2024-03-22T09:57:14;13.00;;;4.32;;
69161;SDS011;56269;51.738;21.652;2024-03-22T09:59:44;14.77;;;6.63;;
69161;SDS011;56269;51.738;21.652;2024-03-22T10:02:12;18.40;;;6.75;;
69161;SDS011;56269;51.738;21.652;2024-03-22T10:04:40;13.83;;;6.37;;
69161;SDS011;56269;51.738;21.652;2024-03-22T10:07:08;14.93;;;5.78;;
69161;SDS011;56269;51.738;21.652;2024-03-22T10:09:36;15.35;;;6.85;;
69161;SDS011;56269;51.738;21.652;2024-03-22T10:12:03;16.30;;;6.95;;
69161;SDS011;56269;51.738;21.652;2024-03-22T10:14:30;17.52;;;7.13;;
69161;SDS011;56269;51.738;21.652;2024-03-22T10:16:58;15.87;;;6.03;;
69161;SDS011;56269;51.738;21.652;2024-03-22T10:19:24;13.57;;;4.70;;
69161;SDS011;56269;51.738;21.652;2024-03-22T10:22:00;16.05;;;5.90;;
69161;SDS011;56269;51.738;21.652;2024-03-22T10:24:28;14.30;;;5.80;;
69161;SDS011;56269;51.738;21.652;2024-03-22T10:26:55;10.43;;;3.88;;
69161;SDS011;56269;51.738;21.652;2024-03-22T10:29:22;15.87;;;6.63;;
69161;SDS011;56269;51.738;21.652;2024-03-22T10:31:51;10.75;;;4.18;;
69161;SDS011;56269;51.738;21.652;2024-03-22T10:34:18;10.60;;;4.15;;
69161;SDS011;56269;51.738;21.652;2024-03-22T10:36:46;13.65;;;5.65;;
69161;SDS011;56269;51.738;21.652;2024-03-22T10:39:13;10.05;;;4.68;;
69161;SDS011;56269;51.738;21.652;2024-03-22T10:41:44;12.80;;;5.60;;
69161;SDS011;56269;51.738;21.652;2024-03-22T10:44:16;10.88;;;4.75;;
69161;SDS011;56269;51.738;21.652;2024-03-22T10:46:46;8.65;;;3.45;;
69161;SDS011;56269;51.738;21.652;2024-03-22T10:49:17;8.65;;;4.00;;
69161;SDS011;56269;51.738;21.652;2024-03-22T10:51:49;12.00;;;3.92;;
69161;SDS011;56269;51.738;21.652;2024-03-22T10:54:24;13.90;;;5.30;;
69161;SDS011;56269;51.738;21.652;2024-03-22T10:56:53;8.65;;;3.42;;
69161;SDS011;56269;51.738;21.652;2024-03-22T10:59:21;11.68;;;4.45;;
69161;SDS011;56269;51.738;21.652;2024-03-22T11:01:51;7.72;;;2.47;;
69161;SDS011;56269;51.738;21.652;2024-03-22T11:04:17;7.68;;;3.03;;
69161;SDS011;56269;51.738;21.652;2024-03-22T11:06:49;9.97;;;4.40;;
69161;SDS011;56269;51.738;21.652;2024-03-22T11:09:20;13.80;;;5.53;;
69161;SDS011;56269;51.738;21.652;2024-03-22T11:11:51;11.32;;;4.55;;
69161;SDS011;56269;51.738;21.652;2024-03-22T11:14:18;12.13;;;4.60;;
69161;SDS011;56269;51.738;21.652;2024-03-22T11:16:46;8.43;;;3.70;;
69161;SDS011;56269;51.738;21.652;2024-03-22T11:19:13;13.83;;;4.40;;
69161;SDS011;56269;51.738;21.652;2024-03-22T11:21:39;12.73;;;5.07;;
69161;SDS011;56269;51.738;21.652;2024-03-22T11:24:05;11.95;;;4.25;;
69161;SDS011;56269;51.738;21.652;2024-03-22T11:26:34;13.00;;;4.70;;
69161;SDS011;56269;51.738;21.652;2024-03-22T11:29:00;13.10;;;4.93;;
69161;SDS011;56269;51.738;21.652;2024-03-22T11:31:27;11.83;;;5.00;;
69161;SDS011;56269;51.738;21.652;2024-03-22T11:33:53;9.80;;;4.00;;
69161;SDS011;56269;51.738;21.652;2024-03-22T11:36:20;7.88;;;3.72;;
69161;SDS011;56269;51.738;21.652;2024-03-22T11:38:46;10.32;;;4.15;;
69161;SDS011;56269;51.738;21.652;2024-03-22T11:41:18;8.43;;;3.33;;
69161;SDS011;56269;51.738;21.652;2024-03-22T11:43:57;11.20;;;4.60;;
69161;SDS011;56269;51.738;21.652;2024-03-22T11:46:26;10.05;;;3.88;;
69161;SDS011;56269;51.738;21.652;2024-03-22T11:48:53;10.98;;;4.70;;
69161;SDS011;56269;51.738;21.652;2024-03-22T11:51:20;12.75;;;4.97;;
69161;SDS011;56269;51.738;21.652;2024-03-22T11:53:53;12.20;;;5.40;;
69161;SDS011;56269;51.738;21.652;2024-03-22T11:56:21;11.50;;;4.60;;
69161;SDS011;56269;51.738;21.652;2024-03-22T11:58:48;13.30;;;5.07;;
69161;SDS011;56269;51.738;21.652;2024-03-22T12:01:15;11.00;;;4.05;;
69161;SDS011;56269;51.738;21.652;2024-03-22T12:03:45;10.23;;;4.00;;
69161;SDS011;56269;51.738;21.652;2024-03-22T12:06:12;13.20;;;5.47;;
69161;SDS011;56269;51.738;21.652;2024-03-22T12:08:40;11.43;;;4.30;;
69161;SDS011;56269;51.738;21.652;2024-03-22T12:11:10;12.35;;;4.90;;
69161;SDS011;56269;51.738;21.652;2024-03-22T12:13:40;10.70;;;4.32;;
69161;SDS011;56269;51.738;21.652;2024-03-22T12:16:06;12.40;;;4.65;;
69161;SDS011;56269;51.738;21.652;2024-03-22T12:18:35;11.35;;;4.65;;
69161;SDS011;56269;51.738;21.652;2024-03-22T12:21:01;12.37;;;5.00;;
69161;SDS011;56269;51.738;21.652;2024-03-22T12:23:28;12.50;;;4.93;;
69161;SDS011;56269;51.738;21.652;2024-03-22T12:25:54;11.70;;;4.75;;
69161;SDS011;56269;51.738;21.652;2024-03-22T12:28:21;5.80;;;2.63;;
69161;SDS011;56269;51.738;21.652;2024-03-22T12:30:48;10.32;;;3.95;;
69161;SDS011;56269;51.738;21.652;2024-03-22T12:33:18;10.57;;;4.47;;
69161;SDS011;56269;51.738;21.652;2024-03-22T12:35:44;12.18;;;5.13;;
69161;SDS011;56269;51.738;21.652;2024-03-22T12:38:11;10.35;;;3.97;;
69161;SDS011;56269;51.738;21.652;2024-03-22T12:40:39;10.40;;;4.30;;
69161;SDS011;56269;51.738;21.652;2024-03-22T12:43:06;8.70;;;3.85;;
69161;SDS011;56269;51.738;21.652;2024-03-22T12:45:34;11.80;;;4.30;;
69161;SDS011;56269;51.738;21.652;2024-03-22T12:48:00;11.50;;;5.10;;
69161;SDS011;56269;51.738;21.652;2024-03-22T12:50:27;11.48;;;5.30;;
69161;SDS011;56269;51.738;21.652;2024-03-22T12:52:54;12.77;;;5.35;;
69161;SDS011;56269;51.738;21.652;2024-03-22T12:55:20;13.32;;;5.15;;
69161;SDS011;56269;51.738;21.652;2024-03-22T12:57:46;9.00;;;3.87;;
69161;SDS011;56269;51.738;21.652;2024-03-22T13:00:12;12.43;;;4.93;;
69161;SDS011;56269;51.738;21.652;2024-03-22T13:02:44;9.13;;;3.78;;
69161;SDS011;56269;51.738;21.652;2024-03-22T13:05:10;9.13;;;3.70;;
69161;SDS011;56269;51.738;21.652;2024-03-22T13:07:37;11.50;;;3.88;;
69161;SDS011;56269;51.738;21.652;2024-03-22T13:10:03;7.40;;;3.60;;
69161;SDS011;56269;51.738;21.652;2024-03-22T13:12:31;7.72;;;3.05;;
69161;SDS011;56269;51.738;21.652;2024-03-22T13:14:59;7.03;;;3.53;;
69161;SDS011;56269;51.738;21.652;2024-03-22T13:17:26;9.45;;;4.20;;
69161;SDS011;56269;51.738;21.652;2024-03-22T13:19:52;11.82;;;4.97;;
69161;SDS011;56269;51.738;21.652;2024-03-22T13:22:18;8.83;;;3.70;;
69161;SDS011;56269;51.738;21.652;2024-03-22T13:24:45;12.80;;;4.30;;
69161;SDS011;56269;51.738;21.652;2024-03-22T13:27:12;9.88;;;4.20;;
69161;SDS011;56269;51.738;21.652;2024-03-22T13:29:39;8.00;;;3.22;;
69161;SDS011;56269;51.738;21.652;2024-03-22T13:32:06;8.32;;;3.15;;
69161;SDS011;56269;51.738;21.652;2024-03-22T13:34:36;9.37;;;4.03;;
69161;SDS011;56269;51.738;21.652;2024-03-22T13:37:03;10.52;;;3.63;;
69161;SDS011;56269;51.738;21.652;2024-03-22T13:39:29;10.07;;;4.18;;
69161;SDS011;56269;51.738;21.652;2024-03-22T13:41:58;8.68;;;3.78;;
69161;SDS011;56269;51.738;21.652;2024-03-22T13:44:24;6.38;;;2.67;;
69161;SDS011;56269;51.738;21.652;2024-03-22T13:46:51;8.43;;;3.13;;
69161;SDS011;56269;51.738;21.652;2024-03-22T13:49:18;6.68;;;2.55;;
69161;SDS011;56269;51.738;21.652;2024-03-22T13:51:49;8.90;;;3.88;;
69161;SDS011;56269;51.738;21.652;2024-03-22T13:54:16;8.82;;;3.53;;
69161;SDS011;56269;51.738;21.652;2024-03-22T13:56:42;7.75;;;3.25;;
69161;SDS011;56269;51.738;21.652;2024-03-22T13:59:09;10.37;;;3.80;;
69161;SDS011;56269;51.738;21.652;2024-03-22T14:01:36;5.47;;;2.20;;
69161;SDS011;56269;51.738;21.652;2024-03-22T14:04:03;4.63;;;2.17;;
69161;SDS011;56269;51.738;21.652;2024-03-22T14:06:30;11.13;;;3.38;;
69161;SDS011;56269;51.738;21.652;2024-03-22T14:08:58;9.38;;;3.53;;
69161;SDS011;56269;51.738;21.652;2024-03-22T14:11:29;8.87;;;3.50;;
69161;SDS011;56269;51.738;21.652;2024-03-22T14:13:59;7.88;;;3.20;;
69161;SDS011;56269;51.738;21.652;2024-03-22T14:16:26;7.35;;;2.97;;
69161;SDS011;56269;51.738;21.652;2024-03-22T14:18:52;6.70;;;3.00;;
69161;SDS011;56269;51.738;21.652;2024-03-22T14:21:20;8.48;;;3.67;;